Terminal Aerodrome Forecast
Issued by NWS

Home | Current Version | Previous Version | Text Only | Print | Product List | Glossary On
Versions: 1 2 3 4 5 6 7 8 9 10 11 12 13 14 15 16 17 18 19 20
000
FTUS41 KILN 302300
TAFLUK
TAF
KLUK 302330Z 3100/3124 00000KT P6SM SCT120
     FM310400 VRB03KT P6SM BKN080
     FM311200 24006KT P6SM VCSH OVC040
     FM311500 27012G20KT 5SM -SHRA BR OVC025
     FM311900 30014G24KT P6SM VCSH BKN025=

USA.gov is the U.S. government's official web portal to all federal, state and local government web resources and services.